Necker Belle — MKYK7 — position and weather

sailwx.info

Track history (hours):
 
Tides and Currents Weather Stations Pressure Air Temp Water Temp Dewpoint Dewpoint Depression Visibility Wind Speed Wind Dir Waves Ship Positions

Necker Belle

Last reported at 2016-Feb-02 03:29 UTC. Time now 2016-Feb-13 10:59 UTC.
Position N 17°26' W 062°25'.
Warning: this ship's position is 11 days out of date.

Length 32 m.

Type: Sailing vessel. MMSI: 232728000.

Date/timePositionNaut miles runAvg speedWind from/ knotsBaromVisibWave heightAir tempDewpointWater temp
2016-Feb-02 03:29N 17°26' W 062°25'8 8.8
2016-Feb-02 02:31N 17°21' W 062°19'9 8.9
2016-Feb-02 01:33N 17°15' W 062°12'9 8.8
2016-Feb-02 00:33N 17°09' W 062°05'12 9.0
2016-Feb-01 23:15N 17°01' W 061°56'6 9.2
2016-Feb-01 22:33N 16°60' W 061°50'4 3.6
2016-Feb-01 21:32N 17°01' W 061°46'0 0.0
2016-Feb-01 20:26N 17°01' W 061°46'0 0.0
2016-Feb-01 19:32N 17°01' W 061°46'0 0.0
2016-Feb-01 18:32N 17°01' W 061°46'0 0.0
2016-Feb-01 17:32N 17°01' W 061°46'0 0.0
2016-Feb-01 16:32N 17°01' W 061°46'0 0.0
2016-Feb-01 14:20N 17°01' W 061°46'0 0.0
2016-Feb-01 11:20N 17°01' W 061°46'0 0.0
2016-Feb-01 10:32N 17°01' W 061°46'0 0.0
2016-Feb-01 09:32N 17°01' W 061°46'0 0.0
2016-Feb-01 08:32N 17°01' W 061°46'0 0.0
2016-Feb-01 07:32N 17°01' W 061°46'0 0.0
2016-Feb-01 05:32N 17°01' W 061°46'0 0.0
2016-Feb-01 04:32N 17°01' W 061°46'0 0.0
2016-Feb-01 03:32N 17°01' W 061°46'0 0.0
2016-Feb-01 02:32N 17°01' W 061°46'0 0.0
2016-Feb-01 01:32N 17°01' W 061°46'0 0.0
2016-Feb-01 00:32N 17°01' W 061°46'0 0.0
2016-Jan-31 23:32N 17°01' W 061°46'0 0.0
2016-Jan-31 02:32N 17°01' W 061°46'0 0.0
2016-Jan-31 01:32N 17°01' W 061°46'0 0.0
2016-Jan-31 00:32N 17°01' W 061°46'  
2016-Jan-27 12:32N 17°01' W 061°46'0 0.0
2016-Jan-27 11:32N 17°01' W 061°46'0 0.0
2016-Jan-27 10:32N 17°01' W 061°46'0 0.0
2016-Jan-27 09:32N 17°01' W 061°46'0 0.0
2016-Jan-27 08:32N 17°01' W 061°46'0 0.0
2016-Jan-27 07:32N 17°01' W 061°46'0 0.0
2016-Jan-27 06:32N 17°01' W 061°46'0 0.0
2016-Jan-27 05:32N 17°01' W 061°46'0 0.0
2016-Jan-27 04:32N 17°01' W 061°46'0 0.0
2016-Jan-27 03:32N 17°01' W 061°46'0 0.0
2016-Jan-27 02:32N 17°01' W 061°46'0 0.0
2016-Jan-27 01:32N 17°01' W 061°46'0 0.0
2016-Jan-27 00:32N 17°01' W 061°46'0 0.0
2016-Jan-26 23:32N 17°01' W 061°46'0 0.0
2016-Jan-26 22:32N 17°01' W 061°46'0 0.0
2016-Jan-26 21:32N 17°01' W 061°46'0 0.0
2016-Jan-26 20:32N 17°01' W 061°46'0 0.0
2016-Jan-26 19:32N 17°01' W 061°46'0 0.0
2016-Jan-26 18:32N 17°01' W 061°46'0 0.0
2016-Jan-26 17:32N 17°01' W 061°46'0 0.0
2016-Jan-26 16:32N 17°01' W 061°46'3 3.2
2016-Jan-26 15:33N 17°00' W 061°49'3 3.1
2016-Jan-26 14:33N 17°01' W 061°46'0 0.0
2016-Jan-26 13:33N 17°01' W 061°46'0 0.0
2016-Jan-26 12:33N 17°01' W 061°46'0 0.0
2016-Jan-26 11:33N 17°01' W 061°46'0 0.0
2016-Jan-26 10:33N 17°01' W 061°46'0 0.0
2016-Jan-26 09:33N 17°01' W 061°46'0 0.0
2016-Jan-26 08:33N 17°01' W 061°46'0 0.0
2016-Jan-26 07:33N 17°01' W 061°46'0 0.0
2016-Jan-26 06:33N 17°01' W 061°46'0 0.0
2016-Jan-26 05:33N 17°01' W 061°46'0 0.0
2016-Jan-26 04:33N 17°01' W 061°46'0 0.0
2016-Jan-26 03:33N 17°01' W 061°46'0 0.0
2016-Jan-26 02:33N 17°01' W 061°46'0 0.0
2016-Jan-26 01:33N 17°01' W 061°46'0 0.0
2016-Jan-26 00:33N 17°01' W 061°46'0 0.0
2016-Jan-25 23:33N 17°01' W 061°46'0 0.0
2016-Jan-25 22:33N 17°01' W 061°46'0 0.0
2016-Jan-25 21:33N 17°01' W 061°46'0 0.0
2016-Jan-25 20:33N 17°01' W 061°46'0 0.0
2016-Jan-25 19:33N 17°01' W 061°46'0 0.0
2016-Jan-25 18:33N 17°01' W 061°46'0 0.0
2016-Jan-25 17:33N 17°01' W 061°46'0 0.0
2016-Jan-25 16:33N 17°01' W 061°46'0 0.0
2016-Jan-25 15:33N 17°01' W 061°46'0 0.0
2016-Jan-25 14:30N 17°01' W 061°46'0 0.0
2016-Jan-25 13:33N 17°01' W 061°46'0 0.0
2016-Jan-25 12:33N 17°01' W 061°46'0 0.0
2016-Jan-25 11:33N 17°01' W 061°46'0 0.0
2016-Jan-25 10:33N 17°01' W 061°46'0 0.0
2016-Jan-25 09:33N 17°01' W 061°46'0 0.0
2016-Jan-25 08:33N 17°01' W 061°46'0 0.0
2016-Jan-25 07:33N 17°01' W 061°46'0 0.0
2016-Jan-25 06:33N 17°01' W 061°46'0 0.0
2016-Jan-25 05:33N 17°01' W 061°46'0 0.0
2016-Jan-25 04:33N 17°01' W 061°46'0 0.0
2016-Jan-25 03:33N 17°01' W 061°46'0 0.0
2016-Jan-25 02:33N 17°01' W 061°46'0 0.0
2016-Jan-25 01:33N 17°01' W 061°46'0 0.0
2016-Jan-25 00:33N 17°01' W 061°46'0 0.0
2016-Jan-24 23:33N 17°01' W 061°46'0 0.0
2016-Jan-24 22:33N 17°01' W 061°46'0 0.0
2016-Jan-24 21:33N 17°01' W 061°46'0 0.0
2016-Jan-24 20:33N 17°01' W 061°46'0 0.0
2016-Jan-24 19:33N 17°01' W 061°46'0 0.0
2016-Jan-24 18:33N 17°01' W 061°46'0 0.0
2016-Jan-24 17:33N 17°01' W 061°46'0 0.0
2016-Jan-24 16:33N 17°01' W 061°46'0 0.0
2016-Jan-24 15:33N 17°01' W 061°46'0 0.0
2016-Jan-24 14:33N 17°01' W 061°46'0 0.0
2016-Jan-24 13:33N 17°01' W 061°46'0 0.0
2016-Jan-24 12:33N 17°01' W 061°46'0 0.0
2016-Jan-24 11:33N 17°01' W 061°46'0 0.0
2016-Jan-24 10:33N 17°01' W 061°46'0 0.0
2016-Jan-24 09:33N 17°01' W 061°46'0 0.0
2016-Jan-24 08:33N 17°01' W 061°46'0 0.0
2016-Jan-24 07:30N 17°01' W 061°46'0 0.0
2016-Jan-24 06:33N 17°01' W 061°46'0 0.0
2016-Jan-24 05:33N 17°01' W 061°46'0 0.0
2016-Jan-24 04:33N 17°01' W 061°46'0 0.0
2016-Jan-24 03:33N 17°01' W 061°46'0 0.0
2016-Jan-24 02:33N 17°01' W 061°46'0 0.0
2016-Jan-24 01:33N 17°01' W 061°46'0 0.0
2016-Jan-24 00:33N 17°01' W 061°46'0 0.0
2016-Jan-23 23:33N 17°01' W 061°46'0 0.0
2016-Jan-23 22:33N 17°01' W 061°46'0 0.0
2016-Jan-23 21:33N 17°01' W 061°46'0 0.0
2016-Jan-23 20:33N 17°01' W 061°46'0 0.0
2016-Jan-23 19:33N 17°01' W 061°46'0 0.0
2016-Jan-23 18:33N 17°01' W 061°46'0 0.0
2016-Jan-23 17:33N 17°01' W 061°46'0 0.0
2016-Jan-23 16:33N 17°01' W 061°46'0 0.0
2016-Jan-23 15:32N 17°01' W 061°46'0 0.0
2016-Jan-23 14:32N 17°01' W 061°46'0 0.0
2016-Jan-23 13:32N 17°01' W 061°46'0 0.0
2016-Jan-23 12:32N 17°01' W 061°46'0 0.0
2016-Jan-23 11:32N 17°01' W 061°46'0 0.0
2016-Jan-23 10:32N 17°01' W 061°46'0 0.0
2016-Jan-23 09:32N 17°01' W 061°46'0 0.0
2016-Jan-23 08:32N 17°01' W 061°46'0 0.0
2016-Jan-23 07:32N 17°01' W 061°46'0 0.0
2016-Jan-23 06:32N 17°01' W 061°46'0 0.0
2016-Jan-23 05:32N 17°01' W 061°46'0 0.0
2016-Jan-23 04:32N 17°01' W 061°46'0 0.0
2016-Jan-23 03:32N 17°01' W 061°46'  
Track history (hours):
 
Tides and Currents Weather Stations Pressure Air Temp Water Temp Dewpoint Dewpoint Depression Visibility Wind Speed Wind Dir Waves Ship Positions

Necker Belle

Last reported at 2016-Feb-02 03:29 UTC. Time now 2016-Feb-13 10:59 UTC.
Position N 17°26' W 062°25'.
Warning: this ship's position is 11 days out of date.

Length 32 m.

Type: Sailing vessel. MMSI: 232728000.

Date/timePositionNaut miles runAvg speedWind from/ knotsBaromVisibWave heightAir tempDewpointWater temp
2016-Feb-02 03:29N 17°26' W 062°25'8 8.8
2016-Feb-02 02:31N 17°21' W 062°19'9 8.9
2016-Feb-02 01:33N 17°15' W 062°12'9 8.8
2016-Feb-02 00:33N 17°09' W 062°05'12 9.0
2016-Feb-01 23:15N 17°01' W 061°56'6 9.2
2016-Feb-01 22:33N 16°60' W 061°50'4 3.6
2016-Feb-01 21:32N 17°01' W 061°46'0 0.0
2016-Feb-01 20:26N 17°01' W 061°46'0 0.0
2016-Feb-01 19:32N 17°01' W 061°46'0 0.0
2016-Feb-01 18:32N 17°01' W 061°46'0 0.0
2016-Feb-01 17:32N 17°01' W 061°46'0 0.0
2016-Feb-01 16:32N 17°01' W 061°46'0 0.0
2016-Feb-01 14:20N 17°01' W 061°46'0 0.0
2016-Feb-01 11:20N 17°01' W 061°46'0 0.0
2016-Feb-01 10:32N 17°01' W 061°46'0 0.0
2016-Feb-01 09:32N 17°01' W 061°46'0 0.0
2016-Feb-01 08:32N 17°01' W 061°46'0 0.0
2016-Feb-01 07:32N 17°01' W 061°46'0 0.0
2016-Feb-01 05:32N 17°01' W 061°46'0 0.0
2016-Feb-01 04:32N 17°01' W 061°46'0 0.0
2016-Feb-01 03:32N 17°01' W 061°46'0 0.0
2016-Feb-01 02:32N 17°01' W 061°46'0 0.0
2016-Feb-01 01:32N 17°01' W 061°46'0 0.0
2016-Feb-01 00:32N 17°01' W 061°46'0 0.0
2016-Jan-31 23:32N 17°01' W 061°46'0 0.0
2016-Jan-31 02:32N 17°01' W 061°46'0 0.0
2016-Jan-31 01:32N 17°01' W 061°46'0 0.0
2016-Jan-31 00:32N 17°01' W 061°46'  
2016-Jan-27 12:32N 17°01' W 061°46'0 0.0
2016-Jan-27 11:32N 17°01' W 061°46'0 0.0
2016-Jan-27 10:32N 17°01' W 061°46'0 0.0
2016-Jan-27 09:32N 17°01' W 061°46'0 0.0
2016-Jan-27 08:32N 17°01' W 061°46'0 0.0
2016-Jan-27 07:32N 17°01' W 061°46'0 0.0
2016-Jan-27 06:32N 17°01' W 061°46'0 0.0
2016-Jan-27 05:32N 17°01' W 061°46'0 0.0
2016-Jan-27 04:32N 17°01' W 061°46'0 0.0
2016-Jan-27 03:32N 17°01' W 061°46'0 0.0
2016-Jan-27 02:32N 17°01' W 061°46'0 0.0
2016-Jan-27 01:32N 17°01' W 061°46'0 0.0
2016-Jan-27 00:32N 17°01' W 061°46'0 0.0
2016-Jan-26 23:32N 17°01' W 061°46'0 0.0
2016-Jan-26 22:32N 17°01' W 061°46'0 0.0
2016-Jan-26 21:32N 17°01' W 061°46'0 0.0
2016-Jan-26 20:32N 17°01' W 061°46'0 0.0
2016-Jan-26 19:32N 17°01' W 061°46'0 0.0
2016-Jan-26 18:32N 17°01' W 061°46'0 0.0
2016-Jan-26 17:32N 17°01' W 061°46'0 0.0
2016-Jan-26 16:32N 17°01' W 061°46'3 3.2
2016-Jan-26 15:33N 17°00' W 061°49'3 3.1
2016-Jan-26 14:33N 17°01' W 061°46'0 0.0
2016-Jan-26 13:33N 17°01' W 061°46'0 0.0
2016-Jan-26 12:33N 17°01' W 061°46'0 0.0
2016-Jan-26 11:33N 17°01' W 061°46'0 0.0
2016-Jan-26 10:33N 17°01' W 061°46'0 0.0
2016-Jan-26 09:33N 17°01' W 061°46'0 0.0
2016-Jan-26 08:33N 17°01' W 061°46'0 0.0
2016-Jan-26 07:33N 17°01' W 061°46'0 0.0
2016-Jan-26 06:33N 17°01' W 061°46'0 0.0
2016-Jan-26 05:33N 17°01' W 061°46'0 0.0
2016-Jan-26 04:33N 17°01' W 061°46'0 0.0
2016-Jan-26 03:33N 17°01' W 061°46'0 0.0
2016-Jan-26 02:33N 17°01' W 061°46'0 0.0
2016-Jan-26 01:33N 17°01' W 061°46'0 0.0
2016-Jan-26 00:33N 17°01' W 061°46'0 0.0
2016-Jan-25 23:33N 17°01' W 061°46'0 0.0
2016-Jan-25 22:33N 17°01' W 061°46'0 0.0
2016-Jan-25 21:33N 17°01' W 061°46'0 0.0
2016-Jan-25 20:33N 17°01' W 061°46'0 0.0
2016-Jan-25 19:33N 17°01' W 061°46'0 0.0
2016-Jan-25 18:33N 17°01' W 061°46'0 0.0
2016-Jan-25 17:33N 17°01' W 061°46'0 0.0
2016-Jan-25 16:33N 17°01' W 061°46'0 0.0
2016-Jan-25 15:33N 17°01' W 061°46'0 0.0
2016-Jan-25 14:30N 17°01' W 061°46'0 0.0
2016-Jan-25 13:33N 17°01' W 061°46'0 0.0
2016-Jan-25 12:33N 17°01' W 061°46'0 0.0
2016-Jan-25 11:33N 17°01' W 061°46'0 0.0
2016-Jan-25 10:33N 17°01' W 061°46'0 0.0
2016-Jan-25 09:33N 17°01' W 061°46'0 0.0
2016-Jan-25 08:33N 17°01' W 061°46'0 0.0
2016-Jan-25 07:33N 17°01' W 061°46'0 0.0
2016-Jan-25 06:33N 17°01' W 061°46'0 0.0
2016-Jan-25 05:33N 17°01' W 061°46'0 0.0
2016-Jan-25 04:33N 17°01' W 061°46'0 0.0
2016-Jan-25 03:33N 17°01' W 061°46'0 0.0
2016-Jan-25 02:33N 17°01' W 061°46'0 0.0
2016-Jan-25 01:33N 17°01' W 061°46'0 0.0
2016-Jan-25 00:33N 17°01' W 061°46'0 0.0
2016-Jan-24 23:33N 17°01' W 061°46'0 0.0
2016-Jan-24 22:33N 17°01' W 061°46'0 0.0
2016-Jan-24 21:33N 17°01' W 061°46'0 0.0
2016-Jan-24 20:33N 17°01' W 061°46'0 0.0
2016-Jan-24 19:33N 17°01' W 061°46'0 0.0
2016-Jan-24 18:33N 17°01' W 061°46'0 0.0
2016-Jan-24 17:33N 17°01' W 061°46'0 0.0
2016-Jan-24 16:33N 17°01' W 061°46'0 0.0
2016-Jan-24 15:33N 17°01' W 061°46'0 0.0
2016-Jan-24 14:33N 17°01' W 061°46'0 0.0
2016-Jan-24 13:33N 17°01' W 061°46'0 0.0
2016-Jan-24 12:33N 17°01' W 061°46'0 0.0
2016-Jan-24 11:33N 17°01' W 061°46'0 0.0
2016-Jan-24 10:33N 17°01' W 061°46'0 0.0
2016-Jan-24 09:33N 17°01' W 061°46'0 0.0
2016-Jan-24 08:33N 17°01' W 061°46'0 0.0
2016-Jan-24 07:30N 17°01' W 061°46'0 0.0
2016-Jan-24 06:33N 17°01' W 061°46'0 0.0
2016-Jan-24 05:33N 17°01' W 061°46'0 0.0
2016-Jan-24 04:33N 17°01' W 061°46'0 0.0
2016-Jan-24 03:33N 17°01' W 061°46'0 0.0
2016-Jan-24 02:33N 17°01' W 061°46'0 0.0
2016-Jan-24 01:33N 17°01' W 061°46'0 0.0
2016-Jan-24 00:33N 17°01' W 061°46'0 0.0
2016-Jan-23 23:33N 17°01' W 061°46'0 0.0
2016-Jan-23 22:33N 17°01' W 061°46'0 0.0
2016-Jan-23 21:33N 17°01' W 061°46'0 0.0
2016-Jan-23 20:33N 17°01' W 061°46'0 0.0
2016-Jan-23 19:33N 17°01' W 061°46'0 0.0
2016-Jan-23 18:33N 17°01' W 061°46'0 0.0
2016-Jan-23 17:33N 17°01' W 061°46'0 0.0
2016-Jan-23 16:33N 17°01' W 061°46'0 0.0
2016-Jan-23 15:32N 17°01' W 061°46'0 0.0
2016-Jan-23 14:32N 17°01' W 061°46'0 0.0
2016-Jan-23 13:32N 17°01' W 061°46'0 0.0
2016-Jan-23 12:32N 17°01' W 061°46'0 0.0
2016-Jan-23 11:32N 17°01' W 061°46'0 0.0
2016-Jan-23 10:32N 17°01' W 061°46'0 0.0
2016-Jan-23 09:32N 17°01' W 061°46'0 0.0
2016-Jan-23 08:32N 17°01' W 061°46'0 0.0
2016-Jan-23 07:32N 17°01' W 061°46'0 0.0
2016-Jan-23 06:32N 17°01' W 061°46'0 0.0
2016-Jan-23 05:32N 17°01' W 061°46'0 0.0
2016-Jan-23 04:32N 17°01' W 061°46'0 0.0
2016-Jan-23 03:32N 17°01' W 061°46'  

Dump ship's entire track history